createdAt,value
2018-07-24T00:00:36.574Z,99.99
2018-07-24T00:01:25.640Z,99.99
2018-07-24T00:02:25.693Z,99.99
2018-07-24T00:03:25.767Z,99.99
2018-07-24T00:04:25.792Z,99.99
2018-07-24T00:05:25.841Z,99.99
2018-07-24T00:06:25.891Z,99.99
2018-07-24T00:07:25.951Z,99.99
2018-07-24T00:08:26.017Z,99.99
2018-07-24T00:09:26.043Z,99.99
2018-07-24T00:10:26.117Z,99.99
2018-07-24T00:11:26.144Z,99.99
2018-07-24T00:12:26.195Z,99.99
2018-07-24T00:13:26.244Z,99.99
2018-07-24T00:14:26.317Z,99.99
2018-07-24T00:15:26.345Z,99.99
2018-07-24T00:16:26.417Z,99.99
2018-07-24T00:17:26.445Z,99.99
2018-07-24T00:18:26.493Z,99.99
2018-07-24T00:19:26.568Z,99.99
2018-07-24T00:20:26.593Z,99.99
2018-07-24T00:21:26.644Z,99.99
2018-07-24T00:22:26.718Z,99.99
2018-07-24T00:23:26.745Z,99.99
2018-07-24T00:24:26.815Z,99.99
2018-07-24T00:25:26.843Z,99.99
2018-07-24T00:26:26.894Z,99.99
2018-07-24T00:27:26.965Z,99.99
2018-07-24T00:28:26.994Z,99.99
2018-07-24T00:29:27.067Z,99.99
2018-07-24T00:30:27.093Z,99.99
2018-07-24T00:31:27.164Z,99.99
2018-07-24T00:32:27.194Z,99.99
2018-07-24T00:33:27.269Z,99.99
2018-07-24T00:34:27.294Z,99.99
2018-07-24T00:35:27.343Z,99.99
2018-07-24T00:36:27.398Z,99.99
2018-07-24T00:37:27.444Z,99.99
2018-07-24T00:38:27.520Z,99.99
2018-07-24T00:39:27.545Z,99.99
2018-07-24T00:40:27.620Z,99.99
2018-07-24T00:41:27.646Z,99.99
2018-07-24T00:42:27.701Z,99.99
2018-07-24T00:43:27.748Z,99.99
2018-07-24T00:44:27.794Z,99.99
2018-07-24T00:45:27.897Z,99.99
2018-07-24T00:46:27.895Z,99.99
2018-07-24T00:47:27.976Z,99.99
2018-07-24T00:48:27.994Z,99.99
2018-07-24T00:49:28.071Z,99.99
2018-07-24T00:50:28.097Z,99.99
2018-07-24T00:51:28.145Z,99.99
2018-07-24T00:52:28.194Z,99.99
2018-07-24T00:53:28.243Z,99.99
2018-07-24T00:54:28.325Z,99.99
2018-07-24T00:55:28.345Z,99.99
2018-07-24T00:56:28.417Z,99.99
2018-07-24T00:57:28.445Z,99.99
2018-07-24T00:58:28.495Z,99.99
2018-07-24T00:59:28.545Z,99.99
2018-07-24T01:00:28.593Z,99.99
2018-07-24T01:01:28.667Z,99.99
2018-07-24T01:02:28.698Z,99.99
2018-07-24T01:03:28.746Z,99.99
2018-07-24T01:04:28.794Z,99.99
2018-07-24T01:05:28.845Z,99.99
2018-07-24T01:06:28.922Z,99.99
2018-07-24T01:07:28.967Z,99.99
2018-07-24T01:08:29.028Z,99.99
2018-07-24T01:09:29.046Z,99.99
2018-07-24T01:10:29.096Z,99.99
2018-07-24T01:11:29.144Z,99.99
2018-07-24T01:12:29.218Z,99.99
2018-07-24T01:13:29.249Z,99.99
2018-07-24T01:14:29.295Z,99.99
2018-07-24T01:15:29.343Z,99.99
2018-07-24T01:16:29.477Z,99.99
2018-07-24T01:17:29.468Z,99.99
2018-07-24T01:18:29.494Z,99.99
2018-07-24T01:19:29.565Z,99.99
2018-07-24T01:20:29.595Z,99.99
2018-07-24T01:21:29.644Z,99.99
2018-07-24T01:22:29.727Z,99.99
2018-07-24T01:23:29.745Z,99.99
2018-07-24T01:24:29.797Z,99.99
2018-07-24T01:25:29.845Z,99.99
2018-07-24T01:26:29.894Z,99.99
2018-07-24T01:27:29.982Z,99.99
2018-07-24T01:28:29.999Z,99.99
2018-07-24T01:29:30.042Z,99.99
2018-07-24T01:30:30.094Z,99.99
2018-07-24T01:31:30.143Z,99.99
2018-07-24T01:32:30.217Z,99.99
2018-07-24T01:33:30.266Z,99.99
2018-07-24T01:34:30.294Z,99.99
2018-07-24T01:35:30.343Z,99.99
2018-07-24T01:36:30.393Z,99.99
2018-07-24T01:37:30.441Z,99.99
2018-07-24T01:38:30.524Z,99.99
2018-07-24T01:39:30.540Z,99.99
2018-07-24T01:40:30.593Z,99.99
2018-07-24T01:41:30.642Z,99.99
2018-07-24T01:42:30.692Z,99.99
2018-07-24T01:43:30.779Z,99.99
2018-07-24T01:44:30.791Z,99.99
2018-07-24T01:45:30.843Z,99.99
2018-07-24T01:46:30.897Z,99.99
2018-07-24T01:47:30.940Z,99.99
2018-07-24T01:48:31.015Z,99.99
2018-07-24T01:49:31.039Z,99.99
2018-07-24T01:50:31.092Z,99.99
2018-07-24T01:51:31.141Z,99.99
2018-07-24T01:52:31.197Z,99.99
2018-07-24T01:53:31.262Z,99.99
2018-07-24T01:54:31.300Z,99.99
2018-07-24T01:55:31.338Z,99.99
2018-07-24T01:56:31.411Z,99.99
2018-07-24T01:57:31.440Z,99.99
2018-07-24T01:58:31.489Z,99.99
2018-07-24T01:59:31.579Z,99.99
2018-07-24T02:00:31.589Z,99.99
2018-07-24T02:01:31.637Z,99.99
2018-07-24T02:02:31.689Z,99.99
2018-07-24T02:03:31.743Z,99.99
2018-07-24T02:04:31.818Z,99.99
2018-07-24T02:05:31.839Z,99.99
2018-07-24T02:06:31.888Z,99.99
2018-07-24T02:07:31.939Z,99.99
2018-07-24T02:08:31.985Z,99.99
2018-07-24T02:09:32.071Z,99.99
2018-07-24T02:10:32.088Z,99.99
2018-07-24T02:11:32.137Z,99.99
2018-07-24T02:12:32.188Z,99.99
2018-07-24T02:13:32.265Z,99.99
2018-07-24T02:14:32.287Z,99.99
2018-07-24T02:15:32.336Z,99.99
2018-07-24T02:16:32.389Z,99.99
2018-07-24T02:17:32.437Z,99.99
2018-07-24T02:18:32.511Z,99.99
2018-07-24T02:19:32.536Z,99.99
2018-07-24T02:20:32.585Z,99.99
2018-07-24T02:21:32.639Z,99.99
2018-07-24T02:22:32.685Z,99.99
2018-07-24T02:23:32.756Z,99.99
2018-07-24T02:24:32.786Z,99.99
2018-07-24T02:25:32.834Z,99.99
2018-07-24T02:26:32.884Z,99.99
2018-07-24T02:27:32.959Z,99.99
2018-07-24T02:28:33.022Z,99.99
2018-07-24T02:29:33.033Z,99.99
2018-07-24T02:30:33.085Z,99.99
2018-07-24T02:31:33.141Z,99.99
2018-07-24T02:32:33.182Z,99.99
2018-07-24T02:33:33.268Z,99.99
2018-07-24T02:34:33.283Z,99.99
2018-07-24T02:35:33.334Z,99.99
2018-07-24T02:36:33.385Z,99.99
2018-07-24T02:37:33.433Z,99.99
2018-07-24T02:38:33.506Z,99.99
2018-07-24T02:39:33.532Z,99.99
2018-07-24T02:40:33.583Z,99.99
2018-07-24T02:41:33.677Z,99.99
2018-07-24T02:42:33.681Z,99.99
2018-07-24T02:43:33.754Z,99.99
2018-07-24T02:44:33.781Z,99.99
2018-07-24T02:45:33.833Z,99.99
2018-07-24T02:46:33.883Z,99.99
2018-07-24T02:47:33.931Z,99.99
2018-07-24T02:48:34.006Z,99.99
2018-07-24T02:49:34.030Z,99.99
2018-07-24T02:50:34.081Z,99.99
2018-07-24T02:51:34.129Z,99.99
2018-07-24T02:52:34.180Z,99.99
2018-07-24T02:53:34.255Z,99.99
2018-07-24T02:54:34.281Z,99.99
2018-07-24T02:55:34.333Z,99.99
2018-07-24T02:56:34.386Z,99.99
2018-07-24T02:57:34.432Z,99.99
2018-07-24T02:58:34.517Z,99.99
2018-07-24T02:59:34.528Z,99.99
2018-07-24T03:00:34.581Z,99.99
2018-07-24T03:01:34.628Z,99.99
2018-07-24T03:02:34.685Z,99.99
2018-07-24T03:03:34.760Z,99.99
2018-07-24T03:04:34.788Z,99.99
2018-07-24T03:05:34.828Z,99.99
2018-07-24T03:06:34.877Z,99.99
2018-07-24T03:07:34.928Z,99.99
2018-07-24T03:08:35.026Z,99.99
2018-07-24T03:09:35.030Z,99.99
2018-07-24T03:10:35.077Z,99.99
2018-07-24T03:11:35.127Z,99.99
2018-07-24T03:12:35.176Z,99.99
2018-07-24T03:13:35.253Z,99.99
2018-07-24T03:14:35.299Z,99.99
2018-07-24T03:15:35.325Z,99.99
2018-07-24T03:16:35.377Z,99.99
2018-07-24T03:17:35.428Z,99.99
2018-07-24T03:18:35.476Z,99.99
2018-07-24T03:19:35.549Z,99.99
2018-07-24T03:20:35.575Z,99.99
2018-07-24T03:21:35.628Z,99.99
2018-07-24T03:22:35.677Z,99.99
2018-07-24T03:23:35.729Z,99.99
2018-07-24T03:24:35.805Z,99.99
2018-07-24T03:25:35.832Z,99.99
2018-07-24T03:26:35.874Z,99.99
2018-07-24T03:27:35.922Z,99.99
2018-07-24T03:28:35.974Z,99.99
2018-07-24T03:29:36.050Z,99.99
2018-07-24T03:30:36.073Z,99.99
2018-07-24T03:31:36.121Z,99.99
2018-07-24T03:32:36.169Z,99.99
2018-07-24T03:33:36.224Z,99.99
2018-07-24T03:34:36.298Z,99.99
2018-07-24T03:35:36.320Z,99.99
2018-07-24T03:36:36.368Z,99.99
2018-07-24T03:37:36.419Z,99.99
2018-07-24T03:38:36.472Z,99.99
2018-07-24T03:39:36.606Z,99.99
2018-07-24T03:40:36.575Z,99.99
2018-07-24T03:41:36.620Z,99.99
2018-07-24T03:42:36.674Z,99.99
2018-07-24T03:43:36.716Z,99.99
2018-07-24T03:44:36.802Z,99.99
2018-07-24T03:45:36.824Z,99.99
2018-07-24T03:46:36.866Z,99.99
2018-07-24T03:47:36.928Z,99.99
2018-07-24T03:48:36.964Z,99.99
2018-07-24T03:49:37.051Z,99.99
2018-07-24T03:50:37.064Z,99.99
2018-07-24T03:51:37.114Z,99.99
2018-07-24T03:52:37.169Z,99.99
2018-07-24T03:53:37.215Z,99.99
2018-07-24T03:54:37.286Z,99.99
2018-07-24T03:55:37.311Z,99.99
2018-07-24T03:56:37.385Z,99.99
2018-07-24T03:57:37.411Z,99.99
2018-07-24T03:58:37.460Z,99.99
2018-07-24T03:59:37.514Z,99.99
2018-07-24T04:00:37.561Z,99.99
2018-07-24T04:01:37.633Z,99.99
2018-07-24T04:02:37.663Z,99.99
2018-07-24T04:03:37.718Z,99.99
2018-07-24T04:04:37.757Z,99.99
2018-07-24T04:05:37.816Z,99.99
2018-07-24T04:06:37.896Z,99.99
2018-07-24T04:07:37.908Z,99.99
2018-07-24T04:08:37.960Z,99.99
2018-07-24T04:09:38.006Z,99.99
2018-07-24T04:10:38.055Z,99.99
2018-07-24T04:11:38.135Z,99.99
2018-07-24T04:12:38.154Z,99.99
2018-07-24T04:13:38.207Z,99.99
2018-07-24T04:14:38.256Z,99.99
2018-07-24T04:15:38.303Z,99.99
2018-07-24T04:16:38.377Z,99.99
2018-07-24T04:17:38.402Z,99.99
2018-07-24T04:18:38.456Z,99.99
2018-07-24T04:19:38.499Z,99.99
2018-07-24T04:20:38.559Z,99.99
2018-07-24T04:21:38.636Z,99.99
2018-07-24T04:22:38.652Z,99.99
2018-07-24T04:23:38.703Z,99.99
2018-07-24T04:24:38.747Z,99.99
2018-07-24T04:25:38.800Z,99.99
2018-07-24T04:26:38.875Z,99.99
2018-07-24T04:27:38.897Z,99.99
2018-07-24T04:28:38.946Z,99.99
2018-07-24T04:29:38.996Z,99.99
2018-07-24T04:30:39.059Z,99.99
2018-07-24T04:31:39.120Z,99.99
2018-07-24T04:32:39.148Z,99.99
2018-07-24T04:33:39.220Z,99.99
2018-07-24T04:34:39.245Z,99.99
2018-07-24T04:35:39.298Z,99.99
2018-07-24T04:36:39.351Z,99.99
2018-07-24T04:37:39.416Z,99.99
2018-07-24T04:38:39.466Z,99.99
2018-07-24T04:39:39.493Z,99.99
2018-07-24T04:40:39.541Z,99.99
2018-07-24T04:41:39.592Z,99.99
2018-07-24T04:42:39.643Z,99.99
2018-07-24T04:43:39.712Z,99.99
2018-07-24T04:44:39.739Z,99.99
2018-07-24T04:45:39.789Z,99.99
2018-07-24T04:46:39.841Z,99.99
2018-07-24T04:47:39.888Z,99.99
2018-07-24T04:48:39.960Z,99.99
2018-07-24T04:49:39.988Z,99.99
2018-07-24T04:50:40.037Z,99.99
2018-07-24T04:51:40.086Z,99.99
2018-07-24T04:52:40.137Z,99.99
2018-07-24T04:53:40.210Z,99.99
2018-07-24T04:54:40.240Z,99.99
2018-07-24T04:55:40.288Z,99.99
2018-07-24T04:56:40.338Z,99.99
2018-07-24T04:57:40.387Z,99.99
2018-07-24T04:58:40.470Z,99.99
2018-07-24T04:59:40.483Z,99.99
2018-07-24T05:00:40.532Z,99.99
2018-07-24T05:01:40.584Z,99.99
2018-07-24T05:02:40.652Z,99.99
2018-07-24T05:03:40.714Z,99.99
2018-07-24T05:04:40.734Z,99.99
2018-07-24T05:05:40.781Z,99.99
2018-07-24T05:06:40.832Z,99.99
2018-07-24T05:07:40.884Z,99.99
2018-07-24T05:08:40.958Z,99.99
2018-07-24T05:09:41.043Z,99.99
2018-07-24T05:10:41.056Z,99.99
2018-07-24T05:11:41.079Z,99.99
2018-07-24T05:12:41.132Z,99.99
2018-07-24T05:13:41.182Z,99.99
2018-07-24T05:14:41.232Z,99.99
2018-07-24T05:15:41.318Z,99.99
2018-07-24T05:16:41.363Z,99.99
2018-07-24T05:17:41.387Z,99.99
2018-07-24T05:18:41.429Z,99.99
2018-07-24T05:19:41.481Z,99.99
2018-07-24T05:20:41.561Z,99.99
2018-07-24T05:21:41.579Z,99.99
2018-07-24T05:22:41.632Z,99.99
2018-07-24T05:23:41.734Z,99.99
2018-07-24T05:24:41.768Z,99.99
2018-07-24T05:25:41.783Z,99.99
2018-07-24T05:26:41.828Z,99.99
2018-07-24T05:27:41.881Z,99.99
2018-07-24T05:28:41.928Z,99.99
2018-07-24T05:29:42.003Z,99.99
2018-07-24T05:30:42.027Z,99.99
2018-07-24T05:31:42.104Z,99.99
2018-07-24T05:32:42.126Z,99.99
2018-07-24T05:33:42.179Z,99.99
2018-07-24T05:34:42.232Z,99.99
2018-07-24T05:35:42.276Z,99.99
2018-07-24T05:36:42.359Z,99.99
2018-07-24T05:37:42.376Z,99.99
2018-07-24T05:38:42.437Z,99.99
2018-07-24T05:39:42.478Z,99.99
2018-07-24T05:40:42.546Z,99.99
2018-07-24T05:41:42.607Z,99.99
2018-07-24T05:42:42.626Z,99.99
2018-07-24T05:43:42.681Z,99.99
2018-07-24T05:44:42.728Z,99.99
2018-07-24T05:45:42.782Z,99.99
2018-07-24T05:46:42.870Z,99.99
2018-07-24T05:47:42.880Z,99.99
2018-07-24T05:48:43.012Z,99.99
2018-07-24T05:49:42.983Z,99.99
2018-07-24T05:50:43.034Z,99.99
2018-07-24T05:51:43.101Z,99.99
2018-07-24T05:52:43.156Z,99.99
2018-07-24T05:53:43.184Z,99.99
2018-07-24T05:54:43.232Z,99.99
2018-07-24T05:55:43.280Z,99.99
2018-07-24T05:56:43.330Z,99.99
2018-07-24T05:57:43.414Z,99.99
2018-07-24T05:58:43.434Z,99.99
2018-07-24T05:59:43.483Z,99.99
2018-07-24T06:00:43.535Z,99.99
2018-07-24T06:01:43.588Z,99.99
2018-07-24T06:02:43.674Z,99.99
2018-07-24T06:03:43.682Z,99.99
2018-07-24T06:04:43.736Z,99.99
2018-07-24T06:05:43.784Z,99.99
2018-07-24T06:06:43.837Z,99.99
2018-07-24T06:07:43.907Z,99.99
2018-07-24T06:08:43.935Z,99.99
2018-07-24T06:09:43.987Z,99.99
2018-07-24T06:10:44.038Z,99.88
2018-07-24T06:11:44.088Z,99.99
2018-07-24T06:12:44.159Z,99.99
2018-07-24T06:13:44.211Z,99.99
2018-07-24T06:14:44.241Z,99.88
2018-07-24T06:15:44.287Z,98.34
2018-07-24T06:16:44.362Z,98.82
2018-07-24T06:17:44.389Z,99.21
2018-07-24T06:18:44.475Z,98.54
2018-07-24T06:19:45.375Z,98.39
2018-07-24T06:20:44.544Z,97.72
2018-07-24T06:21:44.628Z,97.04
2018-07-24T06:22:44.650Z,97.72
2018-07-24T06:23:44.736Z,96.37
2018-07-24T06:24:44.743Z,97.33
2018-07-24T06:25:44.798Z,96.75
2018-07-24T06:26:45.668Z,96.94
2018-07-24T06:27:44.898Z,96.27
2018-07-24T06:28:44.982Z,96.66
2018-07-24T06:29:44.997Z,96.22
2018-07-24T06:30:45.047Z,95.31
2018-07-24T06:31:45.101Z,95.16
2018-07-24T06:32:45.149Z,95.16
2018-07-24T06:33:45.240Z,94.78
2018-07-24T06:34:45.254Z,94.39
2018-07-24T06:35:45.305Z,94.29
2018-07-24T06:36:46.373Z,95.16
2018-07-24T06:37:45.412Z,92.71
2018-07-24T06:38:45.486Z,92.41
2018-07-24T06:39:45.524Z,92.03
2018-07-24T06:40:45.560Z,93.28
2018-07-24T06:41:45.608Z,91.93
2018-07-24T06:42:45.659Z,92.13
2018-07-24T06:43:45.741Z,91.78
2018-07-24T06:44:45.791Z,90.58
2018-07-24T06:45:46.411Z,89.76
2018-07-24T06:46:45.868Z,89.86
2018-07-24T06:47:45.913Z,89.09
2018-07-24T06:48:45.968Z,89.47
2018-07-24T06:49:46.048Z,89.57
2018-07-24T06:50:46.069Z,89.51
2018-07-24T06:51:46.216Z,87.24
2018-07-24T06:52:46.171Z,85.84
2018-07-24T06:53:46.223Z,83.75
2018-07-24T06:54:46.303Z,81.71
2018-07-24T06:55:46.349Z,79.27
2018-07-24T06:56:46.378Z,76.21
2018-07-24T06:57:46.434Z,75.38
2018-07-24T06:58:46.489Z,74.06
2018-07-24T06:59:46.534Z,72.64
2018-07-24T07:00:46.613Z,71.15
2018-07-24T07:01:46.638Z,70.86
2018-07-24T07:02:46.693Z,71.38
2018-07-24T07:03:46.746Z,71.16
2018-07-24T07:04:46.797Z,68.44
2018-07-24T07:05:46.882Z,68.48
2018-07-24T07:06:46.901Z,67.89
2018-07-24T07:07:46.959Z,67.41
2018-07-24T07:08:47.008Z,66.82
2018-07-24T07:09:47.062Z,66.17
2018-07-24T07:10:47.145Z,65.50
2018-07-24T07:11:47.166Z,64.95
2018-07-24T07:12:47.218Z,64.20
2018-07-24T07:13:47.275Z,63.35
2018-07-24T07:14:47.327Z,63.16
2018-07-24T07:15:47.419Z,62.64
2018-07-24T07:16:47.432Z,63.35
2018-07-24T07:17:47.486Z,63.06
2018-07-24T07:18:47.541Z,61.63
2018-07-24T07:19:47.594Z,61.90
2018-07-24T07:20:47.678Z,62.16
2018-07-24T07:21:47.701Z,62.67
2018-07-24T07:22:47.757Z,61.02
2018-07-24T07:23:47.808Z,61.70
2018-07-24T07:24:47.862Z,61.25
2018-07-24T07:25:47.949Z,63.07
2018-07-24T07:26:47.971Z,63.75
2018-07-24T07:27:48.026Z,62.77
2018-07-24T07:28:48.080Z,62.48
2018-07-24T07:29:48.138Z,62.93
2018-07-24T07:30:48.214Z,62.74
2018-07-24T07:31:48.265Z,62.41
2018-07-24T07:32:48.299Z,59.91
2018-07-24T07:33:48.355Z,59.94
2018-07-24T07:34:48.408Z,58.31
2018-07-24T07:35:48.464Z,58.67
2018-07-24T07:36:48.539Z,56.75
2018-07-24T07:37:48.571Z,56.82
2018-07-24T07:38:48.626Z,58.61
2018-07-24T07:39:48.684Z,59.88
2018-07-24T07:40:48.735Z,60.91
2018-07-24T07:41:48.815Z,58.58
2018-07-24T07:42:48.846Z,57.34
2018-07-24T07:43:48.911Z,57.04
2018-07-24T07:44:48.956Z,56.20
2018-07-24T07:45:49.018Z,55.90
2018-07-24T07:46:49.105Z,56.90
2018-07-24T07:47:49.125Z,55.54
2018-07-24T07:48:49.176Z,56.15
2018-07-24T07:49:49.237Z,54.20
2018-07-24T07:50:49.294Z,54.03
2018-07-24T07:51:49.381Z,54.15
2018-07-24T07:52:49.401Z,52.00
2018-07-24T07:53:49.456Z,54.35
2018-07-24T07:54:49.514Z,52.95
2018-07-24T07:55:49.567Z,51.51
2018-07-24T07:56:49.646Z,53.25
2018-07-24T07:57:49.715Z,52.76
2018-07-24T07:58:49.760Z,54.20
2018-07-24T07:59:49.791Z,53.61
2018-07-24T08:00:49.848Z,52.17
2018-07-24T08:01:49.903Z,52.08
2018-07-24T08:02:49.988Z,53.74
2018-07-24T08:03:50.016Z,52.78
2018-07-24T08:04:50.071Z,52.27
2018-07-24T08:05:50.141Z,51.68
2018-07-24T08:06:50.184Z,53.00
2018-07-24T08:07:50.279Z,54.88
2018-07-24T08:08:50.296Z,55.86
2018-07-24T08:09:50.353Z,54.34
2018-07-24T08:10:50.410Z,56.12
2018-07-24T08:11:50.465Z,55.58
2018-07-24T08:12:50.551Z,55.65
2018-07-24T08:13:50.580Z,55.85
2018-07-24T08:14:50.635Z,56.79
2018-07-24T08:15:50.692Z,58.60
2018-07-24T08:16:50.748Z,55.77
2018-07-24T08:17:50.835Z,57.11
2018-07-24T08:18:50.865Z,55.82
2018-07-24T08:19:50.915Z,56.60
2018-07-24T08:20:50.981Z,57.60
2018-07-24T08:21:51.029Z,56.20
2018-07-24T08:22:51.129Z,54.07
2018-07-24T08:23:51.144Z,56.05
2018-07-24T08:24:51.198Z,53.32
2018-07-24T08:25:51.255Z,53.22
2018-07-24T08:26:51.312Z,52.83
2018-07-24T08:27:51.454Z,52.54
2018-07-24T08:28:51.427Z,53.13
2018-07-24T08:29:51.513Z,53.05
2018-07-24T08:30:51.543Z,53.64
2018-07-24T08:31:51.596Z,50.61
2018-07-24T08:32:51.653Z,52.95
2018-07-24T08:33:51.709Z,52.44
2018-07-24T08:34:51.793Z,54.02
2018-07-24T08:35:51.826Z,55.68
2018-07-24T08:36:51.888Z,54.48
2018-07-24T08:37:51.937Z,58.50
2018-07-24T08:38:51.994Z,56.51
2018-07-24T08:39:52.072Z,54.98
2018-07-24T08:40:52.108Z,55.00
2018-07-24T08:41:52.186Z,53.56
2018-07-24T08:42:52.222Z,53.08
2018-07-24T08:43:52.278Z,55.08
2018-07-24T08:44:52.365Z,53.33
2018-07-24T08:45:52.391Z,52.83
2018-07-24T08:46:52.482Z,52.69
2018-07-24T08:47:52.509Z,52.64
2018-07-24T08:48:52.566Z,54.07
2018-07-24T08:49:52.622Z,54.16
2018-07-24T08:50:52.681Z,56.64
2018-07-24T08:51:52.760Z,58.32
2018-07-24T08:52:52.827Z,61.69
2018-07-24T08:53:53.058Z,60.16
2018-07-24T08:54:53.263Z,56.96
2018-07-24T08:55:52.969Z,59.56
2018-07-24T08:56:53.047Z,59.72
2018-07-24T08:57:53.083Z,60.83
2018-07-24T08:58:53.140Z,61.74
2018-07-24T08:59:53.195Z,60.79
2018-07-24T09:00:53.251Z,61.18
2018-07-24T09:01:53.334Z,58.67
2018-07-24T09:02:53.409Z,57.63
2018-07-24T09:03:53.535Z,56.40
2018-07-24T09:04:53.489Z,57.93
2018-07-24T09:05:53.536Z,59.75
2018-07-24T09:06:53.620Z,60.46
2018-07-24T09:07:53.651Z,57.70
2018-07-24T09:08:53.733Z,56.21
2018-07-24T09:09:53.768Z,58.32
2018-07-24T09:10:53.826Z,58.49
2018-07-24T09:11:53.880Z,60.36
2018-07-24T09:12:53.934Z,59.78
2018-07-24T09:13:54.018Z,57.47
2018-07-24T09:14:54.054Z,59.33
2018-07-24T09:15:54.108Z,56.60
2018-07-24T09:16:54.166Z,58.45
2018-07-24T09:17:54.254Z,58.94
2018-07-24T09:18:54.279Z,56.89
2018-07-24T09:19:54.336Z,57.01
2018-07-24T09:20:54.425Z,55.85
2018-07-24T09:21:54.449Z,56.99
2018-07-24T09:22:54.532Z,59.39
2018-07-24T09:23:54.564Z,59.85
2018-07-24T09:24:54.643Z,60.27
2018-07-24T09:25:54.679Z,60.39
2018-07-24T09:26:54.795Z,60.42
2018-07-24T09:27:54.791Z,58.80
2018-07-24T09:28:54.848Z,58.29
2018-07-24T09:29:54.935Z,59.64
2018-07-24T09:30:54.962Z,62.94
2018-07-24T09:31:55.021Z,63.39
2018-07-24T09:32:55.080Z,64.20
2018-07-24T09:33:55.135Z,63.84
2018-07-24T09:34:55.215Z,64.36
2018-07-24T09:35:55.248Z,60.89
2018-07-24T09:36:55.305Z,61.60
2018-07-24T09:37:55.371Z,58.78
2018-07-24T09:38:55.421Z,58.69
2018-07-24T09:39:55.498Z,60.67
2018-07-24T09:40:55.534Z,64.29
2018-07-24T09:41:55.591Z,63.19
2018-07-24T09:42:55.648Z,59.30
2018-07-24T09:43:55.703Z,60.36
2018-07-24T09:44:55.789Z,61.11
2018-07-24T09:45:55.842Z,61.31
2018-07-24T09:46:55.876Z,60.70
2018-07-24T09:47:55.931Z,62.97
2018-07-24T09:48:55.990Z,63.32
2018-07-24T09:49:56.077Z,63.84
2018-07-24T09:50:56.106Z,61.93
2018-07-24T09:51:56.160Z,59.86
2018-07-24T09:52:56.217Z,62.87
2018-07-24T09:53:56.273Z,58.31
2018-07-24T09:54:56.362Z,58.95
2018-07-24T09:55:56.389Z,60.57
2018-07-24T09:56:56.448Z,61.08
2018-07-24T09:57:56.500Z,63.58
2018-07-24T09:58:56.560Z,59.23
2018-07-24T09:59:56.640Z,54.75
2018-07-24T10:00:56.697Z,55.79
2018-07-24T10:01:56.733Z,57.00
2018-07-24T10:02:56.790Z,58.89
2018-07-24T10:03:56.842Z,59.67
2018-07-24T10:04:56.902Z,61.00
2018-07-24T10:05:56.989Z,61.68
2018-07-24T10:06:57.013Z,61.87
2018-07-24T10:07:57.070Z,63.75
2018-07-24T10:08:57.127Z,63.90
2018-07-24T10:09:57.184Z,65.14
2018-07-24T10:10:57.311Z,59.72
2018-07-24T10:11:57.326Z,59.78
2018-07-24T10:12:57.500Z,59.36
2018-07-24T10:13:57.411Z,61.90
2018-07-24T10:14:57.973Z,62.93
2018-07-24T10:15:57.526Z,60.59
2018-07-24T10:16:57.658Z,58.91
2018-07-24T10:17:57.640Z,61.15
2018-07-24T10:18:57.753Z,62.93
2018-07-24T10:19:57.766Z,63.06
2018-07-24T10:20:57.812Z,60.06
2018-07-24T10:21:57.902Z,59.90
2018-07-24T10:22:57.927Z,58.95
2018-07-24T10:23:57.985Z,57.70
2018-07-24T10:24:58.041Z,59.07
2018-07-24T10:25:58.104Z,61.90
2018-07-24T10:26:58.179Z,63.00
2018-07-24T10:27:58.214Z,62.41
2018-07-24T10:28:58.295Z,63.29
2018-07-24T10:29:58.331Z,62.35
2018-07-24T10:30:58.391Z,59.92
2018-07-24T10:31:58.446Z,65.01
2018-07-24T10:32:58.525Z,59.49
2018-07-24T10:33:58.592Z,61.01
2018-07-24T10:34:58.619Z,58.09
2018-07-24T10:35:58.675Z,56.36
2018-07-24T10:36:58.731Z,59.12
2018-07-24T10:37:58.813Z,56.20
2018-07-24T10:38:58.897Z,57.59
2018-07-24T10:39:58.907Z,57.78
2018-07-24T10:40:58.966Z,55.93
2018-07-24T10:41:59.024Z,56.87
2018-07-24T10:42:59.128Z,57.14
2018-07-24T10:43:59.140Z,59.70
2018-07-24T10:44:59.201Z,57.65
2018-07-24T10:45:59.252Z,58.99
2018-07-24T10:46:59.319Z,59.69
2018-07-24T10:47:59.405Z,64.14
2018-07-24T10:48:59.428Z,67.05
2018-07-24T10:49:59.487Z,65.33
2018-07-24T10:50:59.545Z,64.62
2018-07-24T10:51:59.602Z,66.31
2018-07-24T10:52:59.683Z,66.63
2018-07-24T10:53:59.736Z,66.24
2018-07-24T10:54:59.781Z,66.63
2018-07-24T10:55:59.857Z,65.95
2018-07-24T10:56:59.894Z,66.11
2018-07-24T10:57:59.952Z,67.70
2018-07-24T10:59:00.010Z,69.03
2018-07-24T11:00:00.070Z,68.54
2018-07-24T11:01:00.150Z,69.06
2018-07-24T11:02:00.184Z,72.45
2018-07-24T11:03:00.247Z,72.65
2018-07-24T11:04:00.319Z,73.33
2018-07-24T11:05:00.354Z,71.75
2018-07-24T11:06:00.409Z,71.62
2018-07-24T11:07:00.466Z,71.62
2018-07-24T11:08:00.522Z,70.45
2018-07-24T11:09:00.614Z,71.23
2018-07-24T11:10:00.649Z,71.26
2018-07-24T11:11:00.745Z,72.27
2018-07-24T11:12:00.752Z,70.81
2018-07-24T11:13:00.810Z,69.78
2018-07-24T11:14:00.887Z,67.32
2018-07-24T11:15:00.923Z,65.78
2018-07-24T11:16:01.005Z,64.62
2018-07-24T11:17:01.038Z,64.84
2018-07-24T11:18:01.091Z,64.06
2018-07-24T11:19:01.156Z,64.48
2018-07-24T11:20:01.302Z,64.78
2018-07-24T11:21:01.271Z,66.08
2018-07-24T11:22:01.375Z,63.73
2018-07-24T11:23:01.424Z,64.03
2018-07-24T11:24:01.439Z,63.77
2018-07-24T11:25:01.526Z,61.72
2018-07-24T11:26:01.555Z,62.79
2018-07-24T11:27:01.614Z,61.04
2018-07-24T11:28:01.672Z,62.08
2018-07-24T11:29:01.730Z,62.95
2018-07-24T11:30:01.822Z,61.30
2018-07-24T11:31:01.848Z,63.34
2018-07-24T11:32:01.903Z,62.82
2018-07-24T11:33:02.088Z,65.07
2018-07-24T11:34:02.022Z,63.83
2018-07-24T11:35:02.081Z,64.12
2018-07-24T11:36:02.199Z,65.36
2018-07-24T11:37:02.196Z,64.78
2018-07-24T11:38:02.281Z,63.93
2018-07-24T11:39:03.040Z,63.73
2018-07-24T11:40:02.373Z,63.38
2018-07-24T11:41:02.511Z,63.90
2018-07-24T11:42:02.491Z,65.04
2018-07-24T11:43:02.557Z,64.39
2018-07-24T11:44:02.631Z,64.54
2018-07-24T11:45:02.672Z,63.40
2018-07-24T11:46:02.752Z,59.98
2018-07-24T11:47:02.790Z,60.08
2018-07-24T11:48:02.848Z,59.33
2018-07-24T11:49:02.910Z,60.96
2018-07-24T11:50:03.008Z,61.30
2018-07-24T11:51:03.028Z,64.13
2018-07-24T11:52:03.089Z,66.63
2018-07-24T11:53:03.149Z,67.28
2018-07-24T11:54:03.211Z,68.55
2018-07-24T11:55:03.294Z,69.16
2018-07-24T11:56:03.330Z,70.62
2018-07-24T11:57:03.391Z,70.23
2018-07-24T11:58:03.478Z,70.13
2018-07-24T11:59:03.511Z,69.81
2018-07-24T12:00:03.575Z,68.38
2018-07-24T12:01:03.629Z,68.35
2018-07-24T12:02:03.692Z,70.50
2018-07-24T12:03:03.775Z,68.68
2018-07-24T12:04:03.808Z,65.04
2018-07-24T12:05:03.865Z,63.15
2018-07-24T12:06:03.956Z,63.96
2018-07-24T12:07:03.987Z,62.89
2018-07-24T12:08:04.049Z,61.68
2018-07-24T12:09:04.103Z,60.31
2018-07-24T12:10:04.163Z,60.11
2018-07-24T12:11:04.245Z,61.97
2018-07-24T12:12:04.286Z,62.79
2018-07-24T12:13:04.350Z,64.42
2018-07-24T12:14:04.403Z,64.03
2018-07-24T12:15:04.513Z,63.96
2018-07-24T12:16:04.522Z,66.27
2018-07-24T12:17:04.581Z,66.44
2018-07-24T12:18:04.643Z,67.80
2018-07-24T12:19:04.701Z,68.52
2018-07-24T12:20:04.785Z,68.68
2018-07-24T12:21:04.820Z,66.96
2018-07-24T12:22:04.883Z,67.96
2018-07-24T12:23:04.967Z,69.30
2018-07-24T12:24:05.003Z,66.56
2018-07-24T12:25:05.064Z,64.71
2018-07-24T12:26:05.149Z,65.17
2018-07-24T12:27:05.185Z,66.56
2018-07-24T12:28:05.278Z,65.04
2018-07-24T12:29:05.301Z,66.24
2018-07-24T12:30:05.359Z,66.56
2018-07-24T12:31:05.422Z,67.83
2018-07-24T12:32:05.479Z,65.33
2018-07-24T12:33:05.878Z,64.48
2018-07-24T12:34:05.600Z,65.49
2018-07-24T12:35:05.659Z,64.51
2018-07-24T12:36:05.890Z,65.17
2018-07-24T12:37:05.784Z,65.20
2018-07-24T12:38:05.872Z,64.78
2018-07-24T12:39:05.901Z,64.12
2018-07-24T12:40:05.959Z,60.84
2018-07-24T12:41:06.020Z,60.96
2018-07-24T12:42:06.139Z,59.82
2018-07-24T12:43:06.182Z,59.33
2018-07-24T12:44:06.216Z,61.09
2018-07-24T12:45:06.263Z,57.50
2018-07-24T12:46:06.324Z,58.51
2018-07-24T12:47:06.383Z,59.59
2018-07-24T12:48:06.475Z,56.65
2018-07-24T12:49:06.507Z,57.53
2018-07-24T12:50:06.567Z,57.66
2018-07-24T12:51:06.629Z,56.58
2018-07-24T12:52:06.690Z,56.97
2018-07-24T12:53:06.781Z,56.48